sensor_id;sensor_type;location;lat;lon;timestamp;temperature;humidity
65034;DHT22;51601;51.356;12.458;2022-09-09T00:00:32;16.10;93.60
65034;DHT22;51601;51.356;12.458;2022-09-09T00:04:55;16.10;93.70
65034;DHT22;51601;51.356;12.458;2022-09-09T00:09:16;16.00;93.80
65034;DHT22;51601;51.356;12.458;2022-09-09T00:13:36;16.00;93.90
65034;DHT22;51601;51.356;12.458;2022-09-09T00:17:55;15.90;94.10
65034;DHT22;51601;51.356;12.458;2022-09-09T00:22:15;15.80;94.30
65034;DHT22;51601;51.356;12.458;2022-09-09T00:26:32;15.80;94.40
65034;DHT22;51601;51.356;12.458;2022-09-09T00:30:50;15.70;94.30
65034;DHT22;51601;51.356;12.458;2022-09-09T00:35:16;15.60;94.40
65034;DHT22;51601;51.356;12.458;2022-09-09T00:39:34;15.60;94.80
65034;DHT22;51601;51.356;12.458;2022-09-09T00:43:57;15.70;94.40
65034;DHT22;51601;51.356;12.458;2022-09-09T00:48:15;15.70;94.50
65034;DHT22;51601;51.356;12.458;2022-09-09T00:52:38;15.70;94.40
65034;DHT22;51601;51.356;12.458;2022-09-09T00:57:03;15.70;94.50
65034;DHT22;51601;51.356;12.458;2022-09-09T01:01:18;15.70;94.30
65034;DHT22;51601;51.356;12.458;2022-09-09T01:05:39;16.00;94.00
65034;DHT22;51601;51.356;12.458;2022-09-09T01:09:56;16.00;93.50
65034;DHT22;51601;51.356;12.458;2022-09-09T01:14:19;16.10;93.00
65034;DHT22;51601;51.356;12.458;2022-09-09T01:18:39;16.20;92.50
65034;DHT22;51601;51.356;12.458;2022-09-09T01:23:08;16.20;92.30
65034;DHT22;51601;51.356;12.458;2022-09-09T01:27:29;16.20;92.20
65034;DHT22;51601;51.356;12.458;2022-09-09T01:31:53;16.20;92.10
65034;DHT22;51601;51.356;12.458;2022-09-09T01:36:10;16.10;92.20
65034;DHT22;51601;51.356;12.458;2022-09-09T01:40:34;16.00;92.30
65034;DHT22;51601;51.356;12.458;2022-09-09T01:44:49;15.90;92.60
65034;DHT22;51601;51.356;12.458;2022-09-09T01:49:06;15.90;92.70
65034;DHT22;51601;51.356;12.458;2022-09-09T01:53:21;15.90;92.80
65034;DHT22;51601;51.356;12.458;2022-09-09T01:57:41;15.90;92.80
65034;DHT22;51601;51.356;12.458;2022-09-09T02:02:07;15.80;92.70
65034;DHT22;51601;51.356;12.458;2022-09-09T02:06:28;15.80;92.70
65034;DHT22;51601;51.356;12.458;2022-09-09T02:10:56;15.80;92.80
65034;DHT22;51601;51.356;12.458;2022-09-09T02:15:28;15.80;92.80
65034;DHT22;51601;51.356;12.458;2022-09-09T02:19:49;15.80;92.70
65034;DHT22;51601;51.356;12.458;2022-09-09T02:24:15;15.80;92.70
65034;DHT22;51601;51.356;12.458;2022-09-09T02:28:37;15.80;92.70
65034;DHT22;51601;51.356;12.458;2022-09-09T02:32:53;15.80;92.60
65034;DHT22;51601;51.356;12.458;2022-09-09T02:37:29;15.80;92.50
65034;DHT22;51601;51.356;12.458;2022-09-09T02:41:43;15.90;92.20
65034;DHT22;51601;51.356;12.458;2022-09-09T02:46:03;15.80;92.30
65034;DHT22;51601;51.356;12.458;2022-09-09T02:50:25;15.80;92.20
65034;DHT22;51601;51.356;12.458;2022-09-09T02:54:50;15.80;92.30
65034;DHT22;51601;51.356;12.458;2022-09-09T02:59:06;15.80;92.30
65034;DHT22;51601;51.356;12.458;2022-09-09T03:03:21;15.80;92.30
65034;DHT22;51601;51.356;12.458;2022-09-09T03:07:36;15.80;92.10
65034;DHT22;51601;51.356;12.458;2022-09-09T03:11:54;15.80;92.20
65034;DHT22;51601;51.356;12.458;2022-09-09T03:16:08;15.80;92.20
65034;DHT22;51601;51.356;12.458;2022-09-09T03:20:29;15.70;92.30
65034;DHT22;51601;51.356;12.458;2022-09-09T03:24:44;15.80;92.30
65034;DHT22;51601;51.356;12.458;2022-09-09T03:29:01;15.70;92.30
65034;DHT22;51601;51.356;12.458;2022-09-09T03:33:15;15.60;92.10
65034;DHT22;51601;51.356;12.458;2022-09-09T03:37:31;15.60;92.00
65034;DHT22;51601;51.356;12.458;2022-09-09T03:41:45;15.50;92.00
65034;DHT22;51601;51.356;12.458;2022-09-09T03:46:02;15.50;92.20
65034;DHT22;51601;51.356;12.458;2022-09-09T03:50:16;15.40;92.50
65034;DHT22;51601;51.356;12.458;2022-09-09T03:54:32;15.40;92.30
65034;DHT22;51601;51.356;12.458;2022-09-09T03:58:46;15.30;92.30
65034;DHT22;51601;51.356;12.458;2022-09-09T04:03:01;15.30;92.30
65034;DHT22;51601;51.356;12.458;2022-09-09T04:07:15;15.20;92.40
65034;DHT22;51601;51.356;12.458;2022-09-09T04:11:29;15.20;92.30
65034;DHT22;51601;51.356;12.458;2022-09-09T04:15:50;15.20;92.30
65034;DHT22;51601;51.356;12.458;2022-09-09T04:20:06;15.20;92.20
65034;DHT22;51601;51.356;12.458;2022-09-09T04:24:24;15.20;92.40
65034;DHT22;51601;51.356;12.458;2022-09-09T04:28:42;15.30;92.50
65034;DHT22;51601;51.356;12.458;2022-09-09T04:33:01;15.20;92.60
65034;DHT22;51601;51.356;12.458;2022-09-09T04:37:16;15.20;92.60
65034;DHT22;51601;51.356;12.458;2022-09-09T04:41:30;15.20;92.80
65034;DHT22;51601;51.356;12.458;2022-09-09T04:45:47;15.20;92.90
65034;DHT22;51601;51.356;12.458;2022-09-09T04:50:04;15.30;93.10
65034;DHT22;51601;51.356;12.458;2022-09-09T04:54:20;15.50;93.40
65034;DHT22;51601;51.356;12.458;2022-09-09T04:58:35;15.90;93.50
65034;DHT22;51601;51.356;12.458;2022-09-09T05:02:51;16.20;91.80
65034;DHT22;51601;51.356;12.458;2022-09-09T05:07:05;16.30;90.70
65034;DHT22;51601;51.356;12.458;2022-09-09T05:11:21;16.20;90.30
65034;DHT22;51601;51.356;12.458;2022-09-09T05:15:38;16.20;90.80
65034;DHT22;51601;51.356;12.458;2022-09-09T05:19:52;16.20;90.80
65034;DHT22;51601;51.356;12.458;2022-09-09T05:24:06;16.40;90.60
65034;DHT22;51601;51.356;12.458;2022-09-09T05:28:21;16.60;90.40
65034;DHT22;51601;51.356;12.458;2022-09-09T05:32:35;16.80;90.20
65034;DHT22;51601;51.356;12.458;2022-09-09T05:36:49;17.10;89.00
65034;DHT22;51601;51.356;12.458;2022-09-09T05:41:07;17.10;87.20
65034;DHT22;51601;51.356;12.458;2022-09-09T05:45:23;17.10;85.80
65034;DHT22;51601;51.356;12.458;2022-09-09T05:49:37;17.10;85.70
65034;DHT22;51601;51.356;12.458;2022-09-09T05:53:51;17.10;86.20
65034;DHT22;51601;51.356;12.458;2022-09-09T05:58:08;17.10;85.30
65034;DHT22;51601;51.356;12.458;2022-09-09T06:02:25;17.10;85.00
65034;DHT22;51601;51.356;12.458;2022-09-09T06:06:39;17.10;85.00
65034;DHT22;51601;51.356;12.458;2022-09-09T06:11:01;17.20;86.30
65034;DHT22;51601;51.356;12.458;2022-09-09T06:15:16;17.30;86.00
65034;DHT22;51601;51.356;12.458;2022-09-09T06:19:31;17.40;86.60
65034;DHT22;51601;51.356;12.458;2022-09-09T06:23:47;17.50;86.90
65034;DHT22;51601;51.356;12.458;2022-09-09T06:28:01;17.60;85.20
65034;DHT22;51601;51.356;12.458;2022-09-09T06:32:15;17.70;84.10
65034;DHT22;51601;51.356;12.458;2022-09-09T06:36:33;17.70;83.20
65034;DHT22;51601;51.356;12.458;2022-09-09T06:40:52;17.80;82.60
65034;DHT22;51601;51.356;12.458;2022-09-09T06:45:08;17.90;83.80
65034;DHT22;51601;51.356;12.458;2022-09-09T06:49:30;18.00;84.10
65034;DHT22;51601;51.356;12.458;2022-09-09T06:53:49;18.10;85.80
65034;DHT22;51601;51.356;12.458;2022-09-09T06:58:07;18.30;84.70
65034;DHT22;51601;51.356;12.458;2022-09-09T07:02:22;18.30;81.60
65034;DHT22;51601;51.356;12.458;2022-09-09T07:06:38;18.40;82.10
65034;DHT22;51601;51.356;12.458;2022-09-09T07:11:02;18.60;81.60
65034;DHT22;51601;51.356;12.458;2022-09-09T07:15:23;19.30;81.80
65034;DHT22;51601;51.356;12.458;2022-09-09T07:19:38;20.50;79.00
65034;DHT22;51601;51.356;12.458;2022-09-09T07:23:52;20.90;73.40
65034;DHT22;51601;51.356;12.458;2022-09-09T07:28:09;21.30;73.10
65034;DHT22;51601;51.356;12.458;2022-09-09T07:32:23;21.90;70.30
65034;DHT22;51601;51.356;12.458;2022-09-09T07:36:40;22.90;67.70
65034;DHT22;51601;51.356;12.458;2022-09-09T07:41:03;24.00;64.60
65034;DHT22;51601;51.356;12.458;2022-09-09T07:45:19;25.20;59.60
65034;DHT22;51601;51.356;12.458;2022-09-09T07:49:34;26.40;56.60
65034;DHT22;51601;51.356;12.458;2022-09-09T07:53:53;27.30;54.10
65034;DHT22;51601;51.356;12.458;2022-09-09T07:58:07;28.00;52.60
65034;DHT22;51601;51.356;12.458;2022-09-09T08:02:25;28.30;51.90
65034;DHT22;51601;51.356;12.458;2022-09-09T08:06:44;28.20;49.00
65034;DHT22;51601;51.356;12.458;2022-09-09T08:11:05;27.80;50.50
65034;DHT22;51601;51.356;12.458;2022-09-09T08:15:20;27.60;51.60
65034;DHT22;51601;51.356;12.458;2022-09-09T08:19:35;28.70;53.00
65034;DHT22;51601;51.356;12.458;2022-09-09T08:23:55;30.20;50.50
65034;DHT22;51601;51.356;12.458;2022-09-09T08:28:10;31.50;48.30
65034;DHT22;51601;51.356;12.458;2022-09-09T08:32:24;32.40;45.70
65034;DHT22;51601;51.356;12.458;2022-09-09T08:36:42;32.20;42.30
65034;DHT22;51601;51.356;12.458;2022-09-09T08:41:17;31.00;42.50
65034;DHT22;51601;51.356;12.458;2022-09-09T08:45:48;30.50;45.90
65034;DHT22;51601;51.356;12.458;2022-09-09T08:50:21;31.10;45.70
65034;DHT22;51601;51.356;12.458;2022-09-09T08:54:42;31.10;45.10
65034;DHT22;51601;51.356;12.458;2022-09-09T08:59:05;31.70;43.00
65034;DHT22;51601;51.356;12.458;2022-09-09T09:03:33;32.50;42.40
65034;DHT22;51601;51.356;12.458;2022-09-09T09:07:59;33.30;39.50
65034;DHT22;51601;51.356;12.458;2022-09-09T09:12:22;33.60;38.50
65034;DHT22;51601;51.356;12.458;2022-09-09T09:16:42;33.90;38.90
65034;DHT22;51601;51.356;12.458;2022-09-09T09:21:05;34.50;38.10
65034;DHT22;51601;51.356;12.458;2022-09-09T09:25:29;34.70;36.40
65034;DHT22;51601;51.356;12.458;2022-09-09T09:29:49;34.40;35.70
65034;DHT22;51601;51.356;12.458;2022-09-09T09:34:25;34.10;36.30
65034;DHT22;51601;51.356;12.458;2022-09-09T09:38:52;34.30;37.30
65034;DHT22;51601;51.356;12.458;2022-09-09T09:43:28;34.90;35.60
65034;DHT22;51601;51.356;12.458;2022-09-09T09:47:56;35.10;34.70
65034;DHT22;51601;51.356;12.458;2022-09-09T09:52:22;35.20;33.60
65034;DHT22;51601;51.356;12.458;2022-09-09T09:56:36;34.40;34.20
65034;DHT22;51601;51.356;12.458;2022-09-09T10:00:52;33.00;35.40
65034;DHT22;51601;51.356;12.458;2022-09-09T10:05:16;31.50;37.30
65034;DHT22;51601;51.356;12.458;2022-09-09T10:09:38;30.60;39.10
65034;DHT22;51601;51.356;12.458;2022-09-09T10:14:01;30.10;40.80
65034;DHT22;51601;51.356;12.458;2022-09-09T10:18:36;29.90;42.10
65034;DHT22;51601;51.356;12.458;2022-09-09T10:23:06;30.30;40.90
65034;DHT22;51601;51.356;12.458;2022-09-09T10:27:29;31.10;41.00
65034;DHT22;51601;51.356;12.458;2022-09-09T10:31:54;32.20;38.00
65034;DHT22;51601;51.356;12.458;2022-09-09T10:36:17;32.60;37.10
65034;DHT22;51601;51.356;12.458;2022-09-09T10:40:38;33.10;37.10
65034;DHT22;51601;51.356;12.458;2022-09-09T10:45:04;33.40;35.90
65034;DHT22;51601;51.356;12.458;2022-09-09T10:49:36;33.20;36.50
65034;DHT22;51601;51.356;12.458;2022-09-09T10:54:09;33.60;36.30
65034;DHT22;51601;51.356;12.458;2022-09-09T10:58:31;34.10;34.30
65034;DHT22;51601;51.356;12.458;2022-09-09T11:02:51;33.70;35.20
65034;DHT22;51601;51.356;12.458;2022-09-09T11:07:10;33.00;35.50
65034;DHT22;51601;51.356;12.458;2022-09-09T11:11:29;32.00;36.50
65034;DHT22;51601;51.356;12.458;2022-09-09T11:15:46;31.00;38.20
65034;DHT22;51601;51.356;12.458;2022-09-09T11:20:06;30.50;39.50
65034;DHT22;51601;51.356;12.458;2022-09-09T11:24:23;30.70;39.90
65034;DHT22;51601;51.356;12.458;2022-09-09T11:28:51;31.40;39.40
65034;DHT22;51601;51.356;12.458;2022-09-09T11:38:21;32.70;36.30
65034;DHT22;51601;51.356;12.458;2022-09-09T11:42:38;32.30;36.30
65034;DHT22;51601;51.356;12.458;2022-09-09T11:46:52;31.40;37.10
65034;DHT22;51601;51.356;12.458;2022-09-09T11:51:09;30.50;37.20
65034;DHT22;51601;51.356;12.458;2022-09-09T11:55:30;29.90;38.10
65034;DHT22;51601;51.356;12.458;2022-09-09T11:59:50;29.70;39.40
65034;DHT22;51601;51.356;12.458;2022-09-09T12:04:16;30.10;38.70
65034;DHT22;51601;51.356;12.458;2022-09-09T12:08:35;30.30;38.40
65034;DHT22;51601;51.356;12.458;2022-09-09T12:12:50;29.90;38.80
65034;DHT22;51601;51.356;12.458;2022-09-09T12:17:17;29.30;39.90
65034;DHT22;51601;51.356;12.458;2022-09-09T12:21:37;28.60;40.90
65034;DHT22;51601;51.356;12.458;2022-09-09T12:26:06;28.10;41.60
65034;DHT22;51601;51.356;12.458;2022-09-09T12:30:22;27.60;41.90
65034;DHT22;51601;51.356;12.458;2022-09-09T12:34:40;27.10;42.40
65034;DHT22;51601;51.356;12.458;2022-09-09T12:38:56;26.80;42.80
65034;DHT22;51601;51.356;12.458;2022-09-09T12:43:21;26.70;43.60
65034;DHT22;51601;51.356;12.458;2022-09-09T12:47:39;26.60;44.30
65034;DHT22;51601;51.356;12.458;2022-09-09T12:51:55;26.50;44.90
65034;DHT22;51601;51.356;12.458;2022-09-09T12:56:19;26.60;45.20
65034;DHT22;51601;51.356;12.458;2022-09-09T13:00:35;26.70;44.40
65034;DHT22;51601;51.356;12.458;2022-09-09T13:04:49;26.70;44.60
65034;DHT22;51601;51.356;12.458;2022-09-09T13:09:03;26.80;44.40
65034;DHT22;51601;51.356;12.458;2022-09-09T13:13:20;26.80;43.60
65034;DHT22;51601;51.356;12.458;2022-09-09T13:17:36;26.80;43.10
65034;DHT22;51601;51.356;12.458;2022-09-09T13:21:51;26.60;43.50
65034;DHT22;51601;51.356;12.458;2022-09-09T13:26:18;26.30;44.00
65034;DHT22;51601;51.356;12.458;2022-09-09T13:30:35;26.10;44.00
65034;DHT22;51601;51.356;12.458;2022-09-09T13:34:55;25.80;43.60
65034;DHT22;51601;51.356;12.458;2022-09-09T13:39:15;25.50;43.50
65034;DHT22;51601;51.356;12.458;2022-09-09T13:43:31;25.20;44.00
65034;DHT22;51601;51.356;12.458;2022-09-09T13:47:46;25.10;44.70
65034;DHT22;51601;51.356;12.458;2022-09-09T13:52:10;25.10;45.20
65034;DHT22;51601;51.356;12.458;2022-09-09T13:56:24;25.10;45.50
65034;DHT22;51601;51.356;12.458;2022-09-09T14:00:38;25.10;45.70
65034;DHT22;51601;51.356;12.458;2022-09-09T14:04:52;25.00;45.90
65034;DHT22;51601;51.356;12.458;2022-09-09T14:09:11;24.90;46.30
65034;DHT22;51601;51.356;12.458;2022-09-09T14:13:25;24.80;47.00
65034;DHT22;51601;51.356;12.458;2022-09-09T14:17:39;24.40;49.50
65034;DHT22;51601;51.356;12.458;2022-09-09T14:21:53;23.60;52.00
65034;DHT22;51601;51.356;12.458;2022-09-09T14:26:08;22.50;66.20
65034;DHT22;51601;51.356;12.458;2022-09-09T14:30:22;21.10;70.90
65034;DHT22;51601;51.356;12.458;2022-09-09T14:34:36;20.00;77.20
65034;DHT22;51601;51.356;12.458;2022-09-09T14:38:50;19.40;85.70
65034;DHT22;51601;51.356;12.458;2022-09-09T14:43:06;19.40;91.50
65034;DHT22;51601;51.356;12.458;2022-09-09T14:47:19;19.70;93.30
65034;DHT22;51601;51.356;12.458;2022-09-09T14:51:34;20.10;94.10
65034;DHT22;51601;51.356;12.458;2022-09-09T14:55:48;20.40;94.00
65034;DHT22;51601;51.356;12.458;2022-09-09T15:00:04;20.60;93.60
65034;DHT22;51601;51.356;12.458;2022-09-09T15:04:18;20.80;93.10
65034;DHT22;51601;51.356;12.458;2022-09-09T15:08:32;20.90;92.60
65034;DHT22;51601;51.356;12.458;2022-09-09T15:12:53;21.10;91.10
65034;DHT22;51601;51.356;12.458;2022-09-09T15:17:08;21.20;89.60
65034;DHT22;51601;51.356;12.458;2022-09-09T15:21:24;21.60;86.70
65034;DHT22;51601;51.356;12.458;2022-09-09T15:25:38;21.80;84.10
65034;DHT22;51601;51.356;12.458;2022-09-09T15:29:57;22.00;82.20
65034;DHT22;51601;51.356;12.458;2022-09-09T15:34:14;22.00;80.20
65034;DHT22;51601;51.356;12.458;2022-09-09T15:38:28;21.90;81.60
65034;DHT22;51601;51.356;12.458;2022-09-09T15:42:45;21.90;82.30
65034;DHT22;51601;51.356;12.458;2022-09-09T15:46:59;21.90;79.70
65034;DHT22;51601;51.356;12.458;2022-09-09T15:51:14;21.90;78.90
65034;DHT22;51601;51.356;12.458;2022-09-09T15:55:54;21.90;79.60
65034;DHT22;51601;51.356;12.458;2022-09-09T16:00:10;21.90;79.50
65034;DHT22;51601;51.356;12.458;2022-09-09T16:04:25;21.90;80.30
65034;DHT22;51601;51.356;12.458;2022-09-09T16:08:44;21.90;79.90
65034;DHT22;51601;51.356;12.458;2022-09-09T16:13:00;21.80;80.60
65034;DHT22;51601;51.356;12.458;2022-09-09T16:17:14;21.70;81.10
65034;DHT22;51601;51.356;12.458;2022-09-09T16:21:29;21.70;81.20
65034;DHT22;51601;51.356;12.458;2022-09-09T16:25:53;21.60;81.50
65034;DHT22;51601;51.356;12.458;2022-09-09T16:30:08;21.50;81.80
65034;DHT22;51601;51.356;12.458;2022-09-09T16:34:22;21.50;80.00
65034;DHT22;51601;51.356;12.458;2022-09-09T16:38:36;21.40;80.60
65034;DHT22;51601;51.356;12.458;2022-09-09T16:42:51;21.30;79.20
65034;DHT22;51601;51.356;12.458;2022-09-09T16:47:05;21.20;77.50
65034;DHT22;51601;51.356;12.458;2022-09-09T16:51:21;21.20;76.40
65034;DHT22;51601;51.356;12.458;2022-09-09T16:55:39;21.10;73.90
65034;DHT22;51601;51.356;12.458;2022-09-09T16:59:58;21.00;74.90
65034;DHT22;51601;51.356;12.458;2022-09-09T17:04:20;20.90;73.40
65034;DHT22;51601;51.356;12.458;2022-09-09T17:08:36;20.80;71.60
65034;DHT22;51601;51.356;12.458;2022-09-09T17:12:51;20.80;70.70
65034;DHT22;51601;51.356;12.458;2022-09-09T17:17:07;20.70;70.50
65034;DHT22;51601;51.356;12.458;2022-09-09T17:21:41;20.60;67.90
65034;DHT22;51601;51.356;12.458;2022-09-09T17:26:16;20.60;66.40
65034;DHT22;51601;51.356;12.458;2022-09-09T17:30:32;20.50;65.80
65034;DHT22;51601;51.356;12.458;2022-09-09T17:34:48;20.50;65.90
65034;DHT22;51601;51.356;12.458;2022-09-09T17:39:04;20.40;64.90
65034;DHT22;51601;51.356;12.458;2022-09-09T17:43:18;20.40;65.40
65034;DHT22;51601;51.356;12.458;2022-09-09T17:47:32;20.30;66.40
65034;DHT22;51601;51.356;12.458;2022-09-09T17:51:47;20.20;67.60
65034;DHT22;51601;51.356;12.458;2022-09-09T17:56:05;20.10;68.90
65034;DHT22;51601;51.356;12.458;2022-09-09T18:00:19;20.00;69.10
65034;DHT22;51601;51.356;12.458;2022-09-09T18:04:33;19.90;69.00
65034;DHT22;51601;51.356;12.458;2022-09-09T18:33:54;19.30;73.30
65034;DHT22;51601;51.356;12.458;2022-09-09T18:38:08;19.20;73.20
65034;DHT22;51601;51.356;12.458;2022-09-09T18:42:22;19.20;73.70
65034;DHT22;51601;51.356;12.458;2022-09-09T18:46:36;19.20;74.70
65034;DHT22;51601;51.356;12.458;2022-09-09T18:50:52;19.10;75.30
65034;DHT22;51601;51.356;12.458;2022-09-09T18:55:07;19.10;75.40
65034;DHT22;51601;51.356;12.458;2022-09-09T18:59:22;19.00;75.80
65034;DHT22;51601;51.356;12.458;2022-09-09T19:03:37;18.90;76.60
65034;DHT22;51601;51.356;12.458;2022-09-09T19:07:52;18.80;76.50
65034;DHT22;51601;51.356;12.458;2022-09-09T19:12:06;18.70;76.90
65034;DHT22;51601;51.356;12.458;2022-09-09T19:16:21;18.60;76.80
65034;DHT22;51601;51.356;12.458;2022-09-09T19:20:35;18.60;77.20
65034;DHT22;51601;51.356;12.458;2022-09-09T19:24:50;18.50;77.70
65034;DHT22;51601;51.356;12.458;2022-09-09T19:29:04;18.50;78.00
65034;DHT22;51601;51.356;12.458;2022-09-09T19:33:18;18.40;78.30
65034;DHT22;51601;51.356;12.458;2022-09-09T19:37:31;18.40;78.20
65034;DHT22;51601;51.356;12.458;2022-09-09T19:41:47;18.40;78.60
65034;DHT22;51601;51.356;12.458;2022-09-09T19:46:03;18.40;78.70
65034;DHT22;51601;51.356;12.458;2022-09-09T19:50:18;18.40;79.30
65034;DHT22;51601;51.356;12.458;2022-09-09T19:54:31;18.40;78.90
65034;DHT22;51601;51.356;12.458;2022-09-09T19:58:47;18.40;79.20
65034;DHT22;51601;51.356;12.458;2022-09-09T20:03:01;18.30;78.70
65034;DHT22;51601;51.356;12.458;2022-09-09T20:07:31;18.30;79.00
65034;DHT22;51601;51.356;12.458;2022-09-09T20:11:46;18.30;78.90
65034;DHT22;51601;51.356;12.458;2022-09-09T20:16:03;18.20;79.00
65034;DHT22;51601;51.356;12.458;2022-09-09T20:20:17;18.20;79.70
65034;DHT22;51601;51.356;12.458;2022-09-09T20:24:32;18.20;78.80
65034;DHT22;51601;51.356;12.458;2022-09-09T20:28:46;18.20;78.70
65034;DHT22;51601;51.356;12.458;2022-09-09T20:33:03;18.20;79.80
65034;DHT22;51601;51.356;12.458;2022-09-09T20:37:17;18.20;80.60
65034;DHT22;51601;51.356;12.458;2022-09-09T20:41:34;18.10;80.90
65034;DHT22;51601;51.356;12.458;2022-09-09T20:45:48;18.10;80.40
65034;DHT22;51601;51.356;12.458;2022-09-09T20:50:07;18.10;80.20
65034;DHT22;51601;51.356;12.458;2022-09-09T20:54:23;18.20;79.40
65034;DHT22;51601;51.356;12.458;2022-09-09T20:58:38;18.20;79.40
65034;DHT22;51601;51.356;12.458;2022-09-09T21:02:51;18.30;79.60
65034;DHT22;51601;51.356;12.458;2022-09-09T21:07:07;18.20;79.10
65034;DHT22;51601;51.356;12.458;2022-09-09T21:11:21;18.20;79.10
65034;DHT22;51601;51.356;12.458;2022-09-09T21:15:35;18.10;79.40
65034;DHT22;51601;51.356;12.458;2022-09-09T21:19:49;18.00;79.00
65034;DHT22;51601;51.356;12.458;2022-09-09T21:24:10;17.90;79.40
65034;DHT22;51601;51.356;12.458;2022-09-09T21:28:24;17.90;78.60
65034;DHT22;51601;51.356;12.458;2022-09-09T21:32:38;17.80;78.50
65034;DHT22;51601;51.356;12.458;2022-09-09T21:36:52;17.70;78.50
65034;DHT22;51601;51.356;12.458;2022-09-09T21:41:08;17.70;79.50
65034;DHT22;51601;51.356;12.458;2022-09-09T21:45:24;17.60;79.00
65034;DHT22;51601;51.356;12.458;2022-09-09T21:49:39;17.40;79.20
65034;DHT22;51601;51.356;12.458;2022-09-09T21:53:54;17.30;80.30
65034;DHT22;51601;51.356;12.458;2022-09-09T21:58:10;17.30;80.10
65034;DHT22;51601;51.356;12.458;2022-09-09T22:02:24;17.30;80.30
65034;DHT22;51601;51.356;12.458;2022-09-09T22:06:39;17.30;80.20
65034;DHT22;51601;51.356;12.458;2022-09-09T22:10:53;17.40;79.90
65034;DHT22;51601;51.356;12.458;2022-09-09T22:15:08;17.40;79.60
65034;DHT22;51601;51.356;12.458;2022-09-09T22:19:22;17.30;79.40
65034;DHT22;51601;51.356;12.458;2022-09-09T22:23:37;17.30;79.60
65034;DHT22;51601;51.356;12.458;2022-09-09T22:27:50;17.20;79.80
65034;DHT22;51601;51.356;12.458;2022-09-09T22:32:05;17.20;80.40
65034;DHT22;51601;51.356;12.458;2022-09-09T22:36:19;17.10;80.60
65034;DHT22;51601;51.356;12.458;2022-09-09T22:40:34;17.00;81.10
65034;DHT22;51601;51.356;12.458;2022-09-09T22:44:49;16.90;81.70
65034;DHT22;51601;51.356;12.458;2022-09-09T22:49:04;16.90;82.00
65034;DHT22;51601;51.356;12.458;2022-09-09T22:53:18;16.90;82.00
65034;DHT22;51601;51.356;12.458;2022-09-09T22:57:32;16.90;81.90
65034;DHT22;51601;51.356;12.458;2022-09-09T23:01:45;16.80;81.70
65034;DHT22;51601;51.356;12.458;2022-09-09T23:06:02;16.80;82.10
65034;DHT22;51601;51.356;12.458;2022-09-09T23:10:16;16.70;82.50
65034;DHT22;51601;51.356;12.458;2022-09-09T23:14:29;16.70;83.10
65034;DHT22;51601;51.356;12.458;2022-09-09T23:18:45;16.60;83.20
65034;DHT22;51601;51.356;12.458;2022-09-09T23:23:00;16.60;83.40
65034;DHT22;51601;51.356;12.458;2022-09-09T23:27:14;16.60;83.90
65034;DHT22;51601;51.356;12.458;2022-09-09T23:31:30;16.60;83.70
65034;DHT22;51601;51.356;12.458;2022-09-09T23:35:45;16.50;83.70
65034;DHT22;51601;51.356;12.458;2022-09-09T23:40:01;16.50;84.10
65034;DHT22;51601;51.356;12.458;2022-09-09T23:44:15;16.50;84.10
65034;DHT22;51601;51.356;12.458;2022-09-09T23:48:29;16.50;84.10
65034;DHT22;51601;51.356;12.458;2022-09-09T23:52:43;16.50;84.40
65034;DHT22;51601;51.356;12.458;2022-09-09T23:56:59;16.50;84.10
